createdAt,value
2018-06-12T00:00:47.902Z,0.00
2018-06-12T00:01:47.933Z,0.00
2018-06-12T00:02:47.957Z,0.00
2018-06-12T00:03:47.995Z,0.00
2018-06-12T00:04:48.013Z,0.00
2018-06-12T00:05:48.038Z,0.00
2018-06-12T00:06:48.070Z,0.00
2018-06-12T00:07:48.096Z,0.00
2018-06-12T00:08:48.120Z,0.00
2018-06-12T00:09:48.146Z,0.00
2018-06-12T00:10:48.175Z,0.00
2018-06-12T00:11:48.201Z,0.00
2018-06-12T00:12:48.226Z,0.00
2018-06-12T00:13:48.252Z,0.00
2018-06-12T00:14:48.275Z,0.00
2018-06-12T00:15:48.305Z,0.00
2018-06-12T00:16:48.335Z,0.00
2018-06-12T00:17:48.359Z,0.00
2018-06-12T00:18:48.385Z,0.00
2018-06-12T00:19:48.414Z,0.00
2018-06-12T00:20:48.445Z,0.00
2018-06-12T00:21:48.469Z,0.00
2018-06-12T00:22:48.493Z,0.00
2018-06-12T00:23:48.515Z,0.00
2018-06-12T00:24:48.547Z,0.00
2018-06-12T00:25:48.572Z,0.00
2018-06-12T00:26:48.601Z,0.00
2018-06-12T00:27:48.625Z,0.00
2018-06-12T00:28:48.651Z,0.00
2018-06-12T00:29:48.681Z,0.00
2018-06-12T00:30:48.705Z,0.00
2018-06-12T00:31:48.731Z,0.00
2018-06-12T00:32:48.755Z,0.00
2018-06-12T00:33:48.786Z,0.00
2018-06-12T00:34:48.813Z,0.00
2018-06-12T00:35:48.835Z,0.00
2018-06-12T00:36:48.866Z,0.00
2018-06-12T00:37:48.891Z,0.00
2018-06-12T00:38:48.920Z,0.00
2018-06-12T00:39:48.941Z,0.00
2018-06-12T00:40:48.971Z,0.00
2018-06-12T00:41:48.995Z,0.00
2018-06-12T00:42:49.030Z,0.00
2018-06-12T00:43:49.050Z,0.00
2018-06-12T00:44:49.076Z,0.00
2018-06-12T00:45:49.110Z,0.00
2018-06-12T00:46:49.130Z,0.00
2018-06-12T00:47:49.156Z,0.00
2018-06-12T00:48:49.188Z,0.00
2018-06-12T00:49:49.210Z,0.00
2018-06-12T00:50:49.237Z,0.00
2018-06-12T00:51:49.264Z,0.00
2018-06-12T00:52:49.286Z,0.00
2018-06-12T00:53:49.317Z,0.00
2018-06-12T00:54:49.342Z,0.00
2018-06-12T00:55:49.374Z,0.00
2018-06-12T00:56:49.395Z,0.00
2018-06-12T00:57:49.419Z,0.00
2018-06-12T00:58:49.445Z,0.00
2018-06-12T00:59:49.469Z,0.00
2018-06-12T01:00:49.499Z,0.00
2018-06-12T01:01:49.527Z,0.00
2018-06-12T01:02:49.548Z,0.00
2018-06-12T01:03:49.578Z,0.00
2018-06-12T01:04:49.603Z,0.00
2018-06-12T01:05:49.628Z,0.00
2018-06-12T01:06:49.653Z,0.00
2018-06-12T01:07:49.679Z,0.00
2018-06-12T01:08:49.709Z,0.00
2018-06-12T01:09:49.733Z,0.00
2018-06-12T01:10:49.764Z,0.00
2018-06-12T01:11:49.801Z,0.00
2018-06-12T01:12:49.818Z,0.00
2018-06-12T01:13:49.844Z,0.00
2018-06-12T01:14:49.871Z,0.00
2018-06-12T01:15:49.896Z,0.00
2018-06-12T01:16:49.922Z,0.00
2018-06-12T01:17:49.949Z,0.00
2018-06-12T01:18:49.974Z,0.00
2018-06-12T01:19:50.000Z,0.00
2018-06-12T01:20:50.031Z,0.00
2018-06-12T01:21:50.050Z,0.00
2018-06-12T01:22:50.080Z,0.00
2018-06-12T01:23:50.113Z,0.00
2018-06-12T01:24:50.132Z,0.00
2018-06-12T01:25:50.159Z,0.00
2018-06-12T01:26:50.188Z,0.00
2018-06-12T01:27:50.213Z,0.00
2018-06-12T01:28:50.237Z,0.00
2018-06-12T01:29:50.265Z,0.00
2018-06-12T01:30:50.288Z,0.00
2018-06-12T01:31:50.315Z,0.00
2018-06-12T01:32:50.340Z,0.00
2018-06-12T01:33:50.368Z,0.00
2018-06-12T01:34:50.394Z,0.00
2018-06-12T01:35:50.419Z,0.00
2018-06-12T01:36:50.443Z,0.00
2018-06-12T01:37:50.472Z,0.00
2018-06-12T01:38:50.497Z,0.00
2018-06-12T01:39:50.523Z,0.00
2018-06-12T01:40:50.556Z,0.00
2018-06-12T01:41:50.579Z,0.00
2018-06-12T01:42:50.602Z,0.00
2018-06-12T01:43:50.628Z,0.00
2018-06-12T01:44:50.659Z,0.00
2018-06-12T01:45:50.686Z,0.00
2018-06-12T01:46:50.708Z,0.00
2018-06-12T01:47:50.742Z,0.00
2018-06-12T01:48:50.763Z,0.00
2018-06-12T01:49:50.796Z,0.00
2018-06-12T01:50:50.817Z,0.00
2018-06-12T01:51:50.837Z,0.00
2018-06-12T01:52:50.871Z,0.00
2018-06-12T01:53:50.897Z,0.00
2018-06-12T01:54:50.917Z,0.00
2018-06-12T01:55:50.942Z,0.00
2018-06-12T01:56:50.973Z,0.00
2018-06-12T01:57:51.006Z,0.00
2018-06-12T01:58:51.032Z,0.00
2018-06-12T01:59:51.051Z,0.00
2018-06-12T02:00:51.078Z,0.00
2018-06-12T02:01:51.101Z,0.00
2018-06-12T02:02:51.133Z,4.00
2018-06-12T02:03:51.157Z,4.00
2018-06-12T02:04:51.181Z,4.00
2018-06-12T02:05:51.207Z,4.00
2018-06-12T02:06:51.232Z,4.00
2018-06-12T02:07:51.261Z,4.00
2018-06-12T02:08:51.291Z,0.00
2018-06-12T02:09:51.312Z,0.00
2018-06-12T02:10:51.341Z,0.00
2018-06-12T02:11:51.367Z,0.00
2018-06-12T02:12:51.395Z,4.00
2018-06-12T02:13:51.417Z,4.00
2018-06-12T02:14:51.443Z,4.00
2018-06-12T02:15:51.475Z,4.00
2018-06-12T02:16:51.497Z,4.00
2018-06-12T02:17:51.526Z,4.00
2018-06-12T02:18:51.555Z,8.00
2018-06-12T02:19:51.572Z,4.00
2018-06-12T02:20:51.604Z,8.00
2018-06-12T02:21:51.630Z,8.00
2018-06-12T02:22:51.657Z,8.00
2018-06-12T02:23:51.682Z,12.00
2018-06-12T02:24:51.710Z,8.00
2018-06-12T02:25:51.733Z,12.00
2018-06-12T02:26:51.757Z,8.00
2018-06-12T02:27:51.787Z,12.00
2018-06-12T02:28:51.809Z,16.00
2018-06-12T02:29:51.835Z,16.00
2018-06-12T02:30:51.869Z,16.00
2018-06-12T02:31:51.887Z,20.00
2018-06-12T02:32:51.917Z,20.00
2018-06-12T02:33:51.942Z,20.00
2018-06-12T02:34:51.974Z,24.00
2018-06-12T02:35:51.998Z,24.00
2018-06-12T02:36:52.021Z,32.00
2018-06-12T02:37:52.050Z,32.00
2018-06-12T02:38:52.073Z,36.00
2018-06-12T02:39:52.099Z,40.00
2018-06-12T02:40:52.129Z,40.00
2018-06-12T02:41:52.150Z,44.00
2018-06-12T02:42:52.188Z,48.00
2018-06-12T02:43:52.206Z,52.00
2018-06-12T02:44:52.230Z,52.00
2018-06-12T02:45:52.257Z,48.00
2018-06-12T02:46:52.280Z,52.00
2018-06-12T02:47:52.305Z,52.00
2018-06-12T02:48:52.340Z,52.00
2018-06-12T02:49:52.360Z,56.00
2018-06-12T02:50:52.385Z,60.00
2018-06-12T02:51:52.414Z,64.00
2018-06-12T02:52:52.440Z,72.00
2018-06-12T02:53:52.461Z,80.00
2018-06-12T02:54:52.489Z,84.00
2018-06-12T02:55:52.515Z,88.00
2018-06-12T02:56:52.540Z,96.00
2018-06-12T02:57:52.573Z,100.00
2018-06-12T02:58:52.598Z,108.00
2018-06-12T02:59:52.620Z,112.00
2018-06-12T03:00:52.646Z,124.00
2018-06-12T03:01:52.676Z,136.00
2018-06-12T03:02:52.698Z,144.00
2018-06-12T03:03:52.728Z,148.00
2018-06-12T03:04:52.748Z,160.00
2018-06-12T03:05:52.778Z,164.00
2018-06-12T03:06:52.805Z,164.00
2018-06-12T03:07:52.832Z,168.00
2018-06-12T03:08:52.854Z,172.00
2018-06-12T03:09:52.879Z,180.00
2018-06-12T03:10:52.913Z,192.00
2018-06-12T03:11:52.938Z,196.00
2018-06-12T03:12:52.962Z,204.00
2018-06-12T03:13:52.988Z,212.00
2018-06-12T03:14:53.013Z,224.00
2018-06-12T03:15:53.034Z,240.00
2018-06-12T03:16:53.072Z,256.00
2018-06-12T03:17:53.096Z,276.00
2018-06-12T03:18:53.125Z,292.00
2018-06-12T03:19:53.148Z,308.00
2018-06-12T03:20:53.162Z,316.00
2018-06-12T03:21:53.198Z,328.00
2018-06-12T03:22:53.221Z,344.00
2018-06-12T03:23:53.247Z,364.00
2018-06-12T03:24:53.277Z,388.00
2018-06-12T03:25:53.302Z,404.00
2018-06-12T03:26:53.327Z,420.00
2018-06-12T03:27:53.350Z,440.00
2018-06-12T03:28:53.378Z,456.00
2018-06-12T03:29:53.403Z,468.00
2018-06-12T03:30:53.434Z,476.00
2018-06-12T03:31:53.464Z,484.00
2018-06-12T03:32:53.483Z,484.00
2018-06-12T03:33:53.508Z,492.00
2018-06-12T03:34:53.538Z,512.00
2018-06-12T03:35:53.556Z,536.00
2018-06-12T03:36:53.589Z,556.00
2018-06-12T03:37:53.618Z,564.00
2018-06-12T03:38:53.641Z,568.00
2018-06-12T03:39:53.664Z,576.00
2018-06-12T03:40:53.688Z,584.00
2018-06-12T03:41:53.717Z,584.00
2018-06-12T03:42:53.750Z,600.00
2018-06-12T03:43:53.769Z,624.00
2018-06-12T03:44:53.794Z,624.00
2018-06-12T03:45:53.818Z,628.00
2018-06-12T03:46:53.847Z,644.00
2018-06-12T03:47:53.877Z,664.00
2018-06-12T03:48:53.912Z,704.00
2018-06-12T03:49:53.931Z,748.00
2018-06-12T03:50:53.956Z,772.00
2018-06-12T03:51:53.987Z,784.00
2018-06-12T03:52:54.006Z,800.00
2018-06-12T03:53:54.028Z,796.00
2018-06-12T03:54:54.059Z,796.00
2018-06-12T03:55:54.088Z,808.00
2018-06-12T03:56:54.112Z,844.00
2018-06-12T03:57:54.133Z,896.00
2018-06-12T03:58:54.163Z,920.00
2018-06-12T03:59:54.187Z,948.00
2018-06-12T04:00:54.213Z,996.00
2018-06-12T04:01:54.238Z,1040.00
2018-06-12T04:02:54.265Z,1056.00
2018-06-12T04:03:54.293Z,1048.00
2018-06-12T04:04:54.316Z,1036.00
2018-06-12T04:05:54.342Z,1040.00
2018-06-12T04:06:54.376Z,1060.00
2018-06-12T04:07:54.402Z,1068.00
2018-06-12T04:08:54.424Z,1064.00
2018-06-12T04:09:54.461Z,1052.00
2018-06-12T04:10:54.480Z,1064.00
2018-06-12T04:11:54.506Z,1068.00
2018-06-12T04:12:54.526Z,1092.00
2018-06-12T04:13:54.552Z,1108.00
2018-06-12T04:14:54.632Z,1116.00
2018-06-12T04:15:54.606Z,1128.00
2018-06-12T04:16:54.632Z,1136.00
2018-06-12T04:17:54.657Z,1124.00
2018-06-12T04:18:54.686Z,1128.00
2018-06-12T04:19:54.712Z,1160.00
2018-06-12T04:20:54.748Z,1224.00
2018-06-12T04:21:54.766Z,1308.00
2018-06-12T04:22:54.785Z,1392.00
2018-06-12T04:23:54.813Z,1508.00
2018-06-12T04:24:54.836Z,1620.00
2018-06-12T04:25:54.866Z,1704.00
2018-06-12T04:26:54.899Z,1808.00
2018-06-12T04:27:54.918Z,1908.00
2018-06-12T04:28:54.946Z,1988.00
2018-06-12T04:29:54.970Z,2056.00
2018-06-12T04:30:54.996Z,2104.00
2018-06-12T04:31:55.021Z,2132.00
2018-06-12T04:32:55.055Z,2156.00
2018-06-12T04:33:55.080Z,2172.00
2018-06-12T04:34:55.102Z,2172.00
2018-06-12T04:35:55.154Z,2160.00
2018-06-12T04:36:55.157Z,2176.00
2018-06-12T04:37:55.180Z,2160.00
2018-06-12T04:38:55.211Z,2112.00
2018-06-12T04:39:55.231Z,2072.00
2018-06-12T04:40:55.261Z,2064.00
2018-06-12T04:41:55.285Z,2072.00
2018-06-12T04:42:55.310Z,2100.00
2018-06-12T04:43:55.340Z,2208.00
2018-06-12T04:44:55.363Z,2324.00
2018-06-12T04:45:55.392Z,2392.00
2018-06-12T04:46:55.419Z,2484.00
2018-06-12T04:47:55.491Z,2572.00
2018-06-12T04:48:55.474Z,2656.00
2018-06-12T04:49:55.496Z,2784.00
2018-06-12T04:50:55.528Z,2812.00
2018-06-12T04:51:55.559Z,2752.00
2018-06-12T04:52:55.574Z,2732.00
2018-06-12T04:53:55.604Z,2792.00
2018-06-12T04:54:55.628Z,2828.00
2018-06-12T04:55:55.659Z,2920.00
2018-06-12T04:56:55.676Z,3112.00
2018-06-12T04:57:55.704Z,3300.00
2018-06-12T04:58:55.730Z,3360.00
2018-06-12T04:59:55.758Z,3344.00
2018-06-12T05:00:55.786Z,3360.00
2018-06-12T05:01:55.810Z,3424.00
2018-06-12T05:02:55.838Z,3488.00
2018-06-12T05:03:55.866Z,3532.00
2018-06-12T05:04:55.890Z,3588.00
2018-06-12T05:05:55.919Z,3744.00
2018-06-12T05:06:55.942Z,3956.00
2018-06-12T05:07:55.965Z,4116.00
2018-06-12T05:08:55.994Z,4152.00
2018-06-12T05:09:56.020Z,4192.00
2018-06-12T05:10:56.051Z,4320.00
2018-06-12T05:11:56.076Z,4384.00
2018-06-12T05:12:56.105Z,4440.00
2018-06-12T05:13:56.134Z,4480.00
2018-06-12T05:14:56.157Z,4480.00
2018-06-12T05:15:56.178Z,4464.00
2018-06-12T05:16:56.204Z,4540.00
2018-06-12T05:17:56.234Z,4636.00
2018-06-12T05:18:56.269Z,4820.00
2018-06-12T05:19:56.355Z,4904.00
2018-06-12T05:20:56.314Z,5012.00
2018-06-12T05:21:56.345Z,5100.00
2018-06-12T05:22:56.389Z,5136.00
2018-06-12T05:23:56.398Z,5212.00
2018-06-12T05:24:56.420Z,5336.00
2018-06-12T05:25:56.444Z,5300.00
2018-06-12T05:26:56.472Z,5364.00
2018-06-12T05:27:56.500Z,5296.00
2018-06-12T05:28:56.524Z,5304.00
2018-06-12T05:29:56.559Z,5276.00
2018-06-12T05:30:56.581Z,5368.00
2018-06-12T05:31:56.603Z,5376.00
2018-06-12T05:32:56.635Z,5384.00
2018-06-12T05:33:56.659Z,5404.00
2018-06-12T05:34:56.689Z,5448.00
2018-06-12T05:35:56.714Z,5564.00
2018-06-12T05:36:56.758Z,5476.00
2018-06-12T05:37:56.763Z,5360.00
2018-06-12T05:38:56.797Z,5196.00
2018-06-12T05:39:56.818Z,4972.00
2018-06-12T05:40:56.844Z,5056.00
2018-06-12T05:41:56.868Z,4980.00
2018-06-12T05:42:56.901Z,5116.00
2018-06-12T05:43:56.929Z,5648.00
2018-06-12T05:44:56.955Z,5896.00
2018-06-12T05:45:56.984Z,6000.00
2018-06-12T05:46:57.010Z,6140.00
2018-06-12T05:47:57.034Z,6216.00
2018-06-12T05:48:57.058Z,6256.00
2018-06-12T05:49:57.090Z,6000.00
2018-06-12T05:50:57.115Z,5864.00
2018-06-12T05:51:57.161Z,5908.00
2018-06-12T05:52:57.175Z,6168.00
2018-06-12T05:53:57.197Z,6436.00
2018-06-12T05:54:57.220Z,6412.00
2018-06-12T05:55:57.251Z,6684.00
2018-06-12T05:56:57.276Z,6932.00
2018-06-12T05:57:57.298Z,7008.00
2018-06-12T05:58:57.332Z,7136.00
2018-06-12T05:59:57.355Z,7024.00
2018-06-12T06:00:57.378Z,6908.00
2018-06-12T06:01:57.412Z,7140.00
2018-06-12T06:02:57.434Z,6948.00
2018-06-12T06:03:57.462Z,6724.00
2018-06-12T06:04:57.488Z,6936.00
2018-06-12T06:05:57.514Z,7308.00
2018-06-12T06:06:57.548Z,7464.00
2018-06-12T06:07:57.568Z,7756.00
2018-06-12T06:08:57.598Z,7968.00
2018-06-12T06:09:57.623Z,8008.00
2018-06-12T06:10:57.647Z,8116.00
2018-06-12T06:11:57.678Z,8164.00
2018-06-12T06:12:57.702Z,8000.00
2018-06-12T06:13:57.733Z,8000.00
2018-06-12T06:14:57.766Z,8128.00
2018-06-12T06:15:57.795Z,7920.00
2018-06-12T06:16:57.821Z,7996.00
2018-06-12T06:17:57.841Z,8168.00
2018-06-12T06:18:57.870Z,8184.00
2018-06-12T06:19:57.892Z,8328.00
2018-06-12T06:20:57.927Z,7984.00
2018-06-12T06:21:57.948Z,7932.00
2018-06-12T06:22:57.980Z,8160.00
2018-06-12T06:23:58.013Z,8152.00
2018-06-12T06:24:58.031Z,8520.00
2018-06-12T06:25:58.059Z,8484.00
2018-06-12T06:26:58.085Z,8740.00
2018-06-12T06:27:58.110Z,8528.00
2018-06-12T06:28:58.136Z,8540.00
2018-06-12T06:29:58.166Z,8468.00
2018-06-12T06:30:58.193Z,8064.00
2018-06-12T06:31:58.217Z,8496.00
2018-06-12T06:32:58.244Z,8576.00
2018-06-12T06:33:58.272Z,7780.00
2018-06-12T06:34:58.306Z,7740.00
2018-06-12T06:35:58.330Z,8076.00
2018-06-12T06:36:58.351Z,8548.00
2018-06-12T06:37:58.380Z,8908.00
2018-06-12T06:38:58.409Z,9112.00
2018-06-12T06:39:58.431Z,8860.00
2018-06-12T06:40:58.462Z,8556.00
2018-06-12T06:41:58.490Z,8732.00
2018-06-12T06:42:58.536Z,9208.00
2018-06-12T06:43:58.546Z,9240.00
2018-06-12T06:44:58.570Z,9484.00
2018-06-12T06:45:58.603Z,9484.00
2018-06-12T06:46:58.630Z,9284.00
2018-06-12T06:47:58.660Z,9468.00
2018-06-12T06:48:58.680Z,9516.00
2018-06-12T06:49:58.707Z,9240.00
2018-06-12T06:50:58.760Z,9056.00
2018-06-12T06:51:58.761Z,8540.00
2018-06-12T06:52:58.789Z,8368.00
2018-06-12T06:53:58.815Z,8452.00
2018-06-12T06:54:58.850Z,8568.00
2018-06-12T06:55:58.888Z,8384.00
2018-06-12T06:56:58.951Z,7508.00
2018-06-12T06:57:58.925Z,6300.00
2018-06-12T06:58:58.951Z,5936.00
2018-06-12T06:59:58.982Z,6368.00
2018-06-12T07:00:59.009Z,6484.00
2018-06-12T07:01:59.035Z,7264.00
2018-06-12T07:02:59.061Z,8152.00
2018-06-12T07:03:59.085Z,8292.00
2018-06-12T07:04:59.118Z,7972.00
2018-06-12T07:05:59.149Z,7728.00
2018-06-12T07:06:59.173Z,7824.00
2018-06-12T07:07:59.203Z,7912.00
2018-06-12T07:08:59.276Z,8604.00
2018-06-12T07:09:59.253Z,9448.00
2018-06-12T07:10:59.280Z,9932.00
2018-06-12T07:11:59.304Z,9900.00
2018-06-12T07:12:59.339Z,9476.00
2018-06-12T07:13:59.358Z,9468.00
2018-06-12T07:14:59.443Z,10304.00
2018-06-12T07:15:59.419Z,10072.00
2018-06-12T07:16:59.443Z,8944.00
2018-06-12T07:17:59.475Z,7828.00
2018-06-12T07:18:59.509Z,7336.00
2018-06-12T07:19:59.531Z,7196.00
2018-06-12T07:20:59.549Z,6680.00
2018-06-12T07:21:59.581Z,6160.00
2018-06-12T07:22:59.607Z,6328.00
2018-06-12T07:23:59.629Z,7056.00
2018-06-12T07:24:59.663Z,8056.00
2018-06-12T07:25:59.686Z,8920.00
2018-06-12T07:26:59.713Z,9040.00
2018-06-12T07:27:59.747Z,8968.00
2018-06-12T07:28:59.767Z,9120.00
2018-06-12T07:29:59.798Z,9600.00
2018-06-12T07:30:59.827Z,10024.00
2018-06-12T07:31:59.847Z,9908.00
2018-06-12T07:32:59.878Z,9704.00
2018-06-12T07:33:59.904Z,10288.00
2018-06-12T07:34:59.932Z,11368.00
2018-06-12T07:35:59.957Z,11272.00
2018-06-12T07:36:59.983Z,10820.00
2018-06-12T07:38:00.016Z,10504.00
2018-06-12T07:39:00.041Z,10060.00
2018-06-12T07:40:00.071Z,9240.00
2018-06-12T07:41:00.097Z,8204.00
2018-06-12T07:42:00.125Z,7376.00
2018-06-12T07:43:00.149Z,6916.00
2018-06-12T07:44:00.173Z,6736.00
2018-06-12T07:45:00.203Z,6852.00
2018-06-12T07:46:00.227Z,7412.00
2018-06-12T07:47:00.258Z,8012.00
2018-06-12T07:48:00.296Z,8340.00
2018-06-12T07:49:00.313Z,8840.00
2018-06-12T07:50:00.343Z,9164.00
2018-06-12T07:51:00.370Z,9744.00
2018-06-12T07:52:00.392Z,10024.00
2018-06-12T07:53:00.423Z,9092.00
2018-06-12T07:54:00.450Z,8848.00
2018-06-12T07:55:00.495Z,8488.00
2018-06-12T07:56:00.503Z,7900.00
2018-06-12T07:57:00.533Z,7408.00
2018-06-12T07:58:00.558Z,7388.00
2018-06-12T07:59:00.590Z,8048.00
2018-06-12T08:00:00.620Z,8968.00
2018-06-12T08:01:00.708Z,10204.00
2018-06-12T08:02:00.673Z,11840.00
2018-06-12T08:03:00.695Z,11964.00
2018-06-12T08:04:00.723Z,11112.00
2018-06-12T08:05:00.753Z,10244.00
2018-06-12T08:06:00.780Z,9932.00
2018-06-12T08:07:00.813Z,9412.00
2018-06-12T08:08:00.830Z,8516.00
2018-06-12T08:09:00.860Z,7440.00
2018-06-12T08:10:00.885Z,7120.00
2018-06-12T08:11:00.918Z,6908.00
2018-06-12T08:12:00.938Z,6304.00
2018-06-12T08:13:01.018Z,6056.00
2018-06-12T08:14:00.995Z,6388.00
2018-06-12T08:15:01.023Z,7080.00
2018-06-12T08:16:01.051Z,7824.00
2018-06-12T08:17:01.081Z,8400.00
2018-06-12T08:18:01.103Z,8716.00
2018-06-12T08:19:01.140Z,9496.00
2018-06-12T08:20:01.158Z,10720.00
2018-06-12T08:21:01.187Z,11188.00
2018-06-12T08:22:01.213Z,10760.00
2018-06-12T08:23:01.247Z,9724.00
2018-06-12T08:24:01.278Z,9116.00
2018-06-12T08:25:01.295Z,9168.00
2018-06-12T08:26:01.334Z,9480.00
2018-06-12T08:27:01.347Z,9900.00
2018-06-12T08:28:01.375Z,10328.00
2018-06-12T08:29:01.413Z,10592.00
2018-06-12T08:30:01.589Z,10680.00
2018-06-12T08:31:01.461Z,10660.00
2018-06-12T08:32:01.490Z,10836.00
2018-06-12T08:33:01.516Z,11052.00
2018-06-12T08:34:01.545Z,11096.00
2018-06-12T08:35:01.573Z,10752.00
2018-06-12T08:36:01.596Z,11000.00
2018-06-12T08:37:01.623Z,11640.00
2018-06-12T08:38:01.648Z,12192.00
2018-06-12T08:39:01.682Z,12244.00
2018-06-12T08:40:01.715Z,11896.00
2018-06-12T08:41:01.737Z,11712.00
2018-06-12T08:42:01.765Z,11628.00
2018-06-12T08:43:01.791Z,11620.00
2018-06-12T08:44:01.821Z,11504.00
2018-06-12T08:45:01.842Z,11208.00
2018-06-12T08:46:01.873Z,10928.00
2018-06-12T08:47:01.899Z,10764.00
2018-06-12T08:48:01.924Z,10840.00
2018-06-12T08:49:01.953Z,11148.00
2018-06-12T08:50:01.978Z,11460.00
2018-06-12T08:51:02.010Z,11692.00
2018-06-12T08:52:02.032Z,11692.00
2018-06-12T08:53:02.057Z,11684.00
2018-06-12T08:54:02.094Z,11652.00
2018-06-12T08:55:02.128Z,11716.00
2018-06-12T08:56:02.144Z,11908.00
2018-06-12T08:57:02.174Z,12176.00
2018-06-12T08:58:02.197Z,12544.00
2018-06-12T08:59:02.227Z,12868.00
2018-06-12T09:00:02.251Z,13072.00
2018-06-12T09:01:02.282Z,13008.00
2018-06-12T09:02:02.316Z,12972.00
2018-06-12T09:03:02.337Z,12908.00
2018-06-12T09:04:02.362Z,12572.00
2018-06-12T09:05:02.390Z,12292.00
2018-06-12T09:06:02.422Z,12316.00
2018-06-12T09:07:02.447Z,12520.00
2018-06-12T09:08:02.471Z,12332.00
2018-06-12T09:09:02.497Z,11832.00
2018-06-12T09:10:02.552Z,11092.00
2018-06-12T09:11:02.561Z,10816.00
2018-06-12T09:12:02.592Z,10820.00
2018-06-12T09:13:02.614Z,10260.00
2018-06-12T09:14:02.635Z,9396.00
2018-06-12T09:15:02.667Z,8668.00
2018-06-12T09:16:02.696Z,8532.00
2018-06-12T09:17:02.719Z,8696.00
2018-06-12T09:18:02.747Z,8500.00
2018-06-12T09:19:02.770Z,7952.00
2018-06-12T09:20:02.801Z,7572.00
2018-06-12T09:21:02.840Z,7460.00
2018-06-12T09:22:02.857Z,7064.00
2018-06-12T09:23:02.885Z,6668.00
2018-06-12T09:24:02.910Z,6472.00
2018-06-12T09:25:02.946Z,6376.00
2018-06-12T09:26:02.965Z,6556.00
2018-06-12T09:27:02.994Z,6788.00
2018-06-12T09:28:03.020Z,6800.00
2018-06-12T09:29:03.047Z,6700.00
2018-06-12T09:30:03.085Z,6788.00
2018-06-12T09:31:03.102Z,7068.00
2018-06-12T09:32:03.126Z,7408.00
2018-06-12T09:33:03.153Z,8004.00
2018-06-12T09:34:03.179Z,8432.00
2018-06-12T09:35:03.209Z,8316.00
2018-06-12T09:36:03.236Z,7852.00
2018-06-12T09:37:03.272Z,7556.00
2018-06-12T09:38:03.289Z,7692.00
2018-06-12T09:39:03.320Z,8068.00
2018-06-12T09:40:03.339Z,8696.00
2018-06-12T09:41:03.373Z,9476.00
2018-06-12T09:42:03.414Z,10152.00
2018-06-12T09:43:03.433Z,10940.00
2018-06-12T09:44:03.462Z,11896.00
2018-06-12T09:45:03.482Z,12892.00
2018-06-12T09:46:03.513Z,13732.00
2018-06-12T09:47:03.535Z,14308.00
2018-06-12T09:48:03.566Z,14956.00
2018-06-12T09:49:03.638Z,15724.00
2018-06-12T09:50:03.618Z,16612.00
2018-06-12T09:51:03.640Z,17568.00
2018-06-12T09:52:03.673Z,18144.00
2018-06-12T09:53:03.703Z,18208.00
2018-06-12T09:54:03.723Z,18016.00
2018-06-12T09:55:03.753Z,17888.00
2018-06-12T09:56:03.779Z,18240.00
2018-06-12T09:57:03.811Z,18560.00
2018-06-12T09:58:03.836Z,18752.00
2018-06-12T09:59:03.859Z,18496.00
2018-06-12T10:00:03.894Z,18752.00
2018-06-12T10:01:03.914Z,20160.00
2018-06-12T10:02:03.952Z,20800.00
2018-06-12T10:03:03.977Z,20896.00
2018-06-12T10:04:04.004Z,21440.00
2018-06-12T10:05:04.036Z,20480.00
2018-06-12T10:06:04.063Z,21216.00
2018-06-12T10:07:04.092Z,21440.00
2018-06-12T10:08:04.118Z,19264.00
2018-06-12T10:09:04.143Z,15360.00
2018-06-12T10:10:04.171Z,13644.00
2018-06-12T10:11:04.203Z,13260.00
2018-06-12T10:12:04.226Z,12992.00
2018-06-12T10:13:04.253Z,13208.00
2018-06-12T10:14:04.281Z,13028.00
2018-06-12T10:15:04.309Z,12252.00
2018-06-12T10:16:04.333Z,11356.00
2018-06-12T10:17:04.368Z,10748.00
2018-06-12T10:18:04.394Z,10696.00
2018-06-12T10:19:04.422Z,11152.00
2018-06-12T10:20:04.450Z,11816.00
2018-06-12T10:21:04.480Z,12224.00
2018-06-12T10:22:04.508Z,12700.00
2018-06-12T10:23:04.533Z,13252.00
2018-06-12T10:24:04.557Z,13896.00
2018-06-12T10:25:04.613Z,14196.00
2018-06-12T10:26:04.618Z,14312.00
2018-06-12T10:27:04.649Z,14416.00
2018-06-12T10:28:04.685Z,14488.00
2018-06-12T10:29:04.701Z,14680.00
2018-06-12T10:30:04.732Z,14900.00
2018-06-12T10:31:04.757Z,15620.00
2018-06-12T10:32:04.788Z,16244.00
2018-06-12T10:33:04.809Z,16880.00
2018-06-12T10:34:04.842Z,17728.00
2018-06-12T10:35:04.868Z,18048.00
2018-06-12T10:36:04.892Z,17696.00
2018-06-12T10:37:04.959Z,16908.00
2018-06-12T10:38:04.947Z,16664.00
2018-06-12T10:39:04.981Z,17248.00
2018-06-12T10:40:05.011Z,18560.00
2018-06-12T10:41:05.030Z,20096.00
2018-06-12T10:42:05.062Z,21408.00
2018-06-12T10:43:05.089Z,22464.00
2018-06-12T10:44:05.112Z,22912.00
2018-06-12T10:45:05.141Z,23104.00
2018-06-12T10:46:05.172Z,22720.00
2018-06-12T10:47:05.197Z,23072.00
2018-06-12T10:48:05.238Z,23776.00
2018-06-12T10:49:05.251Z,24704.00
2018-06-12T10:50:05.354Z,25344.00
2018-06-12T10:51:05.310Z,25184.00
2018-06-12T10:52:05.341Z,24736.00
2018-06-12T10:53:05.362Z,24768.00
2018-06-12T10:54:05.397Z,24736.00
2018-06-12T10:55:05.429Z,26720.00
2018-06-12T10:56:05.450Z,26944.00
2018-06-12T10:57:05.479Z,28160.00
2018-06-12T10:58:05.509Z,24704.00
2018-06-12T10:59:05.539Z,22528.00
2018-06-12T11:00:05.566Z,20224.00
2018-06-12T11:01:05.600Z,20224.00
2018-06-12T11:02:05.628Z,19936.00
2018-06-12T11:03:05.655Z,15724.00
2018-06-12T11:04:05.681Z,15912.00
2018-06-12T11:05:05.710Z,17632.00
2018-06-12T11:06:05.743Z,17504.00
2018-06-12T11:07:05.775Z,16480.00
2018-06-12T11:08:05.798Z,15852.00
2018-06-12T11:09:05.832Z,15104.00
2018-06-12T11:10:05.858Z,13564.00
2018-06-12T11:11:05.885Z,12480.00
2018-06-12T11:12:05.913Z,11732.00
2018-06-12T11:13:05.946Z,11488.00
2018-06-12T11:14:05.973Z,11436.00
2018-06-12T11:15:06.000Z,10852.00
2018-06-12T11:16:06.025Z,9784.00
2018-06-12T11:17:06.055Z,9324.00
2018-06-12T11:18:06.084Z,9016.00
2018-06-12T11:19:06.116Z,9144.00
2018-06-12T11:20:06.140Z,9704.00
2018-06-12T11:21:06.171Z,10540.00
2018-06-12T11:22:06.199Z,11508.00
2018-06-12T11:23:06.230Z,12488.00
2018-06-12T11:24:06.255Z,13876.00
2018-06-12T11:25:06.286Z,15176.00
2018-06-12T11:26:06.322Z,16176.00
2018-06-12T11:27:06.348Z,17440.00
2018-06-12T11:28:06.370Z,19200.00
2018-06-12T11:29:06.405Z,20736.00
2018-06-12T11:30:06.434Z,21856.00
2018-06-12T11:31:06.459Z,22848.00
2018-06-12T11:32:06.488Z,23744.00
2018-06-12T11:33:06.531Z,23968.00
2018-06-12T11:34:06.549Z,23200.00
2018-06-12T11:35:06.569Z,21952.00
2018-06-12T11:36:06.596Z,21280.00
2018-06-12T11:37:06.627Z,20384.00
2018-06-12T11:38:06.656Z,20512.00
2018-06-12T11:39:06.685Z,19136.00
2018-06-12T11:40:06.713Z,17632.00
2018-06-12T11:41:06.773Z,17248.00
2018-06-12T11:42:06.770Z,18016.00
2018-06-12T11:43:06.803Z,18752.00
2018-06-12T11:44:06.827Z,18784.00
2018-06-12T11:45:06.868Z,17984.00
2018-06-12T11:46:06.886Z,17504.00
2018-06-12T11:47:06.915Z,16912.00
2018-06-12T11:48:06.938Z,16384.00
2018-06-12T11:49:06.968Z,15720.00
2018-06-12T11:50:07.004Z,15268.00
2018-06-12T11:51:07.030Z,14908.00
2018-06-12T11:52:07.058Z,14968.00
2018-06-12T11:53:07.085Z,15100.00
2018-06-12T11:54:07.111Z,15476.00
2018-06-12T11:55:07.138Z,16100.00
2018-06-12T11:56:07.169Z,16820.00
2018-06-12T11:57:07.199Z,17792.00
2018-06-12T11:58:07.225Z,18656.00
2018-06-12T11:59:07.262Z,19584.00
2018-06-12T12:00:07.284Z,20544.00
2018-06-12T12:01:07.350Z,21568.00
2018-06-12T12:02:07.345Z,22656.00
2018-06-12T12:03:07.372Z,24096.00
2018-06-12T12:04:07.400Z,25760.00
2018-06-12T12:05:07.434Z,26848.00
2018-06-12T12:06:07.453Z,26176.00
2018-06-12T12:07:07.485Z,23968.00
2018-06-12T12:08:07.518Z,22144.00
2018-06-12T12:09:07.543Z,20384.00
2018-06-12T12:10:07.567Z,17792.00
2018-06-12T12:11:07.602Z,15796.00
2018-06-12T12:12:07.639Z,14196.00
2018-06-12T12:13:07.656Z,12248.00
2018-06-12T12:14:07.682Z,11516.00
2018-06-12T12:15:07.713Z,10852.00
2018-06-12T12:16:07.739Z,10036.00
2018-06-12T12:17:07.768Z,9376.00